createdAt,value
2022-08-20T00:01:47.002Z,23.13
2022-08-20T00:03:50.157Z,23.25
2022-08-20T00:05:47.048Z,23.19
2022-08-20T00:07:46.948Z,22.82
2022-08-20T00:09:47.074Z,22.95
2022-08-20T00:11:46.889Z,22.79
2022-08-20T00:13:46.921Z,22.73
2022-08-20T00:15:47.009Z,22.82
2022-08-20T00:17:47.020Z,22.78
2022-08-20T00:19:46.870Z,22.97
2022-08-20T00:21:46.844Z,22.99
2022-08-20T00:23:47.043Z,23.09
2022-08-20T00:25:47.042Z,23.11
2022-08-20T00:27:47.044Z,23.20
2022-08-20T00:29:46.933Z,23.13
2022-08-20T00:31:47.003Z,23.16
2022-08-20T00:33:47.045Z,23.09
2022-08-20T00:35:47.055Z,22.99
2022-08-20T00:37:46.880Z,23.26
2022-08-20T00:39:47.075Z,23.06
2022-08-20T00:41:46.994Z,23.06
2022-08-20T00:43:46.944Z,22.96
2022-08-20T00:45:47.011Z,22.99
2022-08-20T00:47:51.428Z,22.99
2022-08-20T00:49:46.992Z,22.99
2022-08-20T00:51:47.006Z,22.92
2022-08-20T00:53:47.063Z,23.06
2022-08-20T00:55:47.093Z,22.98
2022-08-20T00:58:00.898Z,23.00
2022-08-20T00:59:47.025Z,22.82
2022-08-20T01:01:55.604Z,22.67
2022-08-20T01:03:47.058Z,22.69
2022-08-20T01:05:47.037Z,22.74
2022-08-20T01:07:47.001Z,22.64
2022-08-20T01:09:58.116Z,22.78
2022-08-20T01:11:47.085Z,22.71
2022-08-20T01:13:47.020Z,22.87
2022-08-20T01:15:47.071Z,22.97
2022-08-20T01:17:47.112Z,22.97
2022-08-20T01:19:47.085Z,22.95
2022-08-20T01:21:50.332Z,23.03
2022-08-20T01:23:47.123Z,22.96
2022-08-20T01:25:47.162Z,22.99
2022-08-20T01:27:47.097Z,22.92
2022-08-20T01:29:46.973Z,22.95
2022-08-20T01:31:46.963Z,22.99
2022-08-20T01:33:47.101Z,22.99
2022-08-20T01:35:46.964Z,22.99
2022-08-20T01:37:46.983Z,22.92
2022-08-20T01:39:47.048Z,22.93
2022-08-20T01:41:46.966Z,22.99
2022-08-20T01:43:47.065Z,22.83
2022-08-20T01:45:47.119Z,22.94
2022-08-20T01:47:47.097Z,22.96
2022-08-20T01:49:47.028Z,22.96
2022-08-20T01:51:47.098Z,22.96
2022-08-20T01:53:46.970Z,22.71
2022-08-20T01:55:47.095Z,22.58
2022-08-20T01:57:47.127Z,22.70
2022-08-20T01:59:47.120Z,22.74
2022-08-20T02:01:47.296Z,22.59
2022-08-20T02:03:47.066Z,22.68
2022-08-20T02:05:47.066Z,22.68
2022-08-20T02:07:47.112Z,22.85
2022-08-20T02:09:47.022Z,22.77
2022-08-20T02:11:46.963Z,22.82
2022-08-20T02:13:47.163Z,22.84
2022-08-20T02:15:47.055Z,22.92
2022-08-20T02:17:47.141Z,22.78
2022-08-20T02:19:47.141Z,22.95
2022-08-20T02:21:47.127Z,22.92
2022-08-20T02:23:47.133Z,22.82
2022-08-20T02:25:47.156Z,22.86
2022-08-20T02:27:47.174Z,22.81
2022-08-20T02:29:47.148Z,22.93
2022-08-20T02:32:32.802Z,22.85
2022-08-20T02:34:21.689Z,22.83
2022-08-20T02:35:47.178Z,22.79
2022-08-20T02:37:47.076Z,22.79
2022-08-20T02:39:47.301Z,22.87
2022-08-20T02:41:46.991Z,22.82
2022-08-20T02:43:47.038Z,22.85
2022-08-20T02:45:47.039Z,22.66
2022-08-20T02:47:47.203Z,22.55
2022-08-20T02:49:47.184Z,22.57
2022-08-20T02:51:47.215Z,22.58
2022-08-20T02:53:47.209Z,22.64
2022-08-20T02:55:47.044Z,22.72
2022-08-20T02:57:47.163Z,22.58
2022-08-20T02:59:47.186Z,22.76
2022-08-20T03:01:47.132Z,22.95
2022-08-20T03:03:47.187Z,22.87
2022-08-20T03:05:47.024Z,22.83
2022-08-20T03:07:47.151Z,22.82
2022-08-20T03:09:47.151Z,22.73
2022-08-20T03:11:47.208Z,22.72
2022-08-20T03:13:47.230Z,22.79
2022-08-20T03:15:47.066Z,22.78
2022-08-20T03:17:47.214Z,22.74
2022-08-20T03:19:47.223Z,22.79
2022-08-20T03:21:47.246Z,22.80
2022-08-20T03:23:47.188Z,22.73
2022-08-20T03:25:47.204Z,22.82
2022-08-20T03:27:47.250Z,22.73
2022-08-20T03:29:47.194Z,22.79
2022-08-20T03:31:47.109Z,22.76
2022-08-20T03:33:52.748Z,22.68
2022-08-20T03:35:47.153Z,22.76
2022-08-20T03:37:48.495Z,22.74
2022-08-20T03:39:47.280Z,22.53
2022-08-20T03:41:47.161Z,22.40
2022-08-20T03:43:47.257Z,22.46
2022-08-20T03:45:47.256Z,22.40
2022-08-20T03:47:47.087Z,22.48
2022-08-20T03:49:47.269Z,22.40
2022-08-20T03:51:58.113Z,22.49
2022-08-20T03:53:47.280Z,22.69
2022-08-20T03:55:54.374Z,22.68
2022-08-20T03:57:47.290Z,22.71
2022-08-20T03:59:47.255Z,22.68
2022-08-20T04:01:47.322Z,22.40
2022-08-20T04:03:48.510Z,22.41
2022-08-20T04:05:47.227Z,22.41
2022-08-20T04:07:47.234Z,22.53
2022-08-20T04:09:47.133Z,22.42
2022-08-20T04:11:47.137Z,22.44
2022-08-20T04:13:47.232Z,22.42
2022-08-20T04:15:47.309Z,22.48
2022-08-20T04:17:47.125Z,22.40
2022-08-20T04:19:47.302Z,22.28
2022-08-20T04:21:47.257Z,22.39
2022-08-20T04:23:47.179Z,22.40
2022-08-20T04:25:47.287Z,22.40
2022-08-20T04:27:47.305Z,22.38
2022-08-20T04:29:47.104Z,22.35
2022-08-20T04:31:47.226Z,22.43
2022-08-20T04:33:47.247Z,22.33
2022-08-20T04:35:47.282Z,22.38
2022-08-20T04:37:47.328Z,22.34
2022-08-20T04:39:47.378Z,22.38
2022-08-20T04:41:47.130Z,22.37
2022-08-20T04:43:47.262Z,22.39
2022-08-20T04:45:47.295Z,22.56
2022-08-20T04:47:47.347Z,22.68
2022-08-20T04:49:47.255Z,22.58
2022-08-20T04:51:47.218Z,22.68
2022-08-20T04:53:51.976Z,22.68
2022-08-20T04:55:47.250Z,22.70
2022-08-20T04:57:47.218Z,22.79
2022-08-20T04:59:47.300Z,22.67
2022-08-20T05:01:47.350Z,22.68
2022-08-20T05:03:47.328Z,22.69
2022-08-20T05:05:47.334Z,22.65
2022-08-20T05:07:47.344Z,22.65
2022-08-20T05:09:47.316Z,22.67
2022-08-20T05:11:47.336Z,22.70
2022-08-20T05:13:47.321Z,22.72
2022-08-20T05:15:47.348Z,22.68
2022-08-20T05:17:47.327Z,22.71
2022-08-20T05:19:47.330Z,22.60
2022-08-20T05:21:47.287Z,22.65
2022-08-20T05:23:47.266Z,22.69
2022-08-20T05:25:47.361Z,22.40
2022-08-20T05:27:47.946Z,22.54
2022-08-20T05:29:47.357Z,22.37
2022-08-20T05:31:47.377Z,22.39
2022-08-20T05:33:47.341Z,22.46
2022-08-20T05:35:47.387Z,22.34
2022-08-20T05:37:47.376Z,22.40
2022-08-20T05:39:47.307Z,22.59
2022-08-20T05:41:47.376Z,22.56
2022-08-20T05:43:47.402Z,22.57
2022-08-20T05:45:47.465Z,22.65
2022-08-20T05:47:47.267Z,22.56
2022-08-20T05:49:47.356Z,22.62
2022-08-20T05:51:47.367Z,22.70
2022-08-20T05:53:47.399Z,22.82
2022-08-20T05:55:47.375Z,22.72
2022-08-20T05:57:47.378Z,22.63
2022-08-20T05:59:47.361Z,22.53
2022-08-20T06:01:47.395Z,22.69
2022-08-20T06:03:47.442Z,22.59
2022-08-20T06:05:47.388Z,22.66
2022-08-20T06:07:47.332Z,22.65
2022-08-20T06:09:47.403Z,22.72
2022-08-20T06:11:47.454Z,22.65
2022-08-20T06:13:47.377Z,22.67
2022-08-20T06:15:47.277Z,22.65
2022-08-20T06:17:47.339Z,22.40
2022-08-20T06:19:47.389Z,22.13
2022-08-20T06:21:47.401Z,22.40
2022-08-20T06:23:57.046Z,22.42
2022-08-20T06:25:47.364Z,22.49
2022-08-20T06:27:47.432Z,22.51
2022-08-20T06:29:47.449Z,22.53
2022-08-20T06:31:47.372Z,22.53
2022-08-20T06:33:47.387Z,22.82
2022-08-20T06:35:47.451Z,23.04
2022-08-20T06:37:47.332Z,23.12
2022-08-20T06:39:47.321Z,23.21
2022-08-20T06:41:47.481Z,23.08
2022-08-20T06:43:47.364Z,23.36
2022-08-20T06:45:47.450Z,23.22
2022-08-20T06:47:47.355Z,23.27
2022-08-20T06:49:47.467Z,23.26
2022-08-20T06:51:52.001Z,23.26
2022-08-20T06:53:47.414Z,23.17
2022-08-20T06:55:48.536Z,23.10
2022-08-20T06:57:47.355Z,23.06
2022-08-20T06:59:54.124Z,23.04
2022-08-20T07:01:47.453Z,23.03
2022-08-20T07:03:54.817Z,23.15
2022-08-20T07:05:47.443Z,23.22
2022-08-20T07:07:47.316Z,23.34
2022-08-20T07:09:47.386Z,23.37
2022-08-20T07:11:47.422Z,23.19
2022-08-20T07:13:47.417Z,22.79
2022-08-20T07:15:47.407Z,22.59
2022-08-20T07:17:47.437Z,22.51
2022-08-20T07:19:47.376Z,22.59
2022-08-20T07:21:47.500Z,22.56
2022-08-20T07:23:47.509Z,22.56
2022-08-20T07:25:47.530Z,22.56
2022-08-20T07:27:47.527Z,23.19
2022-08-20T07:29:47.395Z,23.14
2022-08-20T07:31:48.149Z,23.30
2022-08-20T07:33:47.455Z,23.38
2022-08-20T07:35:47.523Z,23.45
2022-08-20T07:37:47.509Z,23.53
2022-08-20T07:39:47.399Z,23.63
2022-08-20T07:41:56.409Z,23.69
2022-08-20T07:43:47.477Z,23.86
2022-08-20T07:45:48.635Z,23.81
2022-08-20T07:47:47.443Z,23.83
2022-08-20T07:49:47.497Z,23.86
2022-08-20T07:51:47.508Z,23.84
2022-08-20T07:53:47.512Z,23.97
2022-08-20T07:55:51.127Z,23.89
2022-08-20T07:57:47.576Z,23.91
2022-08-20T07:59:47.610Z,24.04
2022-08-20T08:01:47.421Z,23.81
2022-08-20T08:03:50.345Z,23.96
2022-08-20T08:05:47.783Z,23.52
2022-08-20T08:07:47.502Z,23.25
2022-08-20T08:09:47.426Z,23.08
2022-08-20T08:11:47.848Z,23.03
2022-08-20T08:13:47.494Z,22.97
2022-08-20T08:15:47.610Z,22.95
2022-08-20T08:17:47.509Z,22.97
2022-08-20T08:19:47.525Z,23.25
2022-08-20T08:21:47.451Z,23.72
2022-08-20T08:23:47.461Z,23.96
2022-08-20T08:25:47.481Z,23.81
2022-08-20T08:27:47.605Z,24.02
2022-08-20T08:29:47.403Z,24.05
2022-08-20T08:31:47.573Z,24.10
2022-08-20T08:33:47.468Z,24.10
2022-08-20T08:35:47.661Z,24.05
2022-08-20T08:37:47.556Z,24.11
2022-08-20T08:39:47.633Z,24.04
2022-08-20T08:41:47.626Z,24.10
2022-08-20T08:43:47.584Z,24.12
2022-08-20T08:45:47.573Z,24.12
2022-08-20T08:47:47.589Z,24.04
2022-08-20T08:49:47.628Z,23.97
2022-08-20T08:51:47.480Z,24.04
2022-08-20T08:53:47.579Z,24.15
2022-08-20T08:55:47.649Z,24.12
2022-08-20T08:57:47.575Z,24.26
2022-08-20T08:59:52.256Z,23.81
2022-08-20T09:01:54.210Z,23.70
2022-08-20T09:03:47.633Z,23.69
2022-08-20T09:05:47.616Z,23.63
2022-08-20T09:07:47.464Z,23.82
2022-08-20T09:09:47.538Z,23.77
2022-08-20T09:11:47.505Z,23.84
2022-08-20T09:13:47.569Z,24.19
2022-08-20T09:15:47.455Z,24.40
2022-08-20T09:17:47.606Z,24.38
2022-08-20T09:19:47.615Z,24.51
2022-08-20T09:21:47.705Z,24.64
2022-08-20T09:23:47.638Z,24.68
2022-08-20T09:25:47.607Z,24.66
2022-08-20T09:27:47.556Z,24.66
2022-08-20T09:29:48.402Z,24.90
2022-08-20T09:31:47.554Z,24.85
2022-08-20T09:33:47.605Z,24.52
2022-08-20T09:35:47.583Z,24.59
2022-08-20T09:37:50.931Z,24.44
2022-08-20T09:39:47.622Z,24.62
2022-08-20T09:41:47.526Z,25.10
2022-08-20T09:43:47.716Z,24.98
2022-08-20T09:45:47.520Z,24.95
2022-08-20T09:47:56.421Z,25.55
2022-08-20T09:49:47.638Z,25.58
2022-08-20T09:51:47.617Z,25.26
2022-08-20T09:53:47.616Z,25.52
2022-08-20T09:55:47.543Z,25.00
2022-08-20T09:57:47.719Z,24.89
2022-08-20T09:59:47.649Z,24.55
2022-08-20T10:01:47.559Z,25.26
2022-08-20T10:03:47.603Z,25.57
2022-08-20T10:05:47.554Z,25.19
2022-08-20T10:07:47.551Z,26.14
2022-08-20T10:09:47.630Z,26.13
2022-08-20T10:11:47.728Z,25.17
2022-08-20T10:13:47.515Z,25.23
2022-08-20T10:15:47.572Z,25.31
2022-08-20T10:17:47.698Z,25.52
2022-08-20T10:19:47.682Z,25.23
2022-08-20T10:21:47.646Z,25.37
2022-08-20T10:23:47.724Z,25.57
2022-08-20T10:25:47.661Z,25.94
2022-08-20T10:27:47.596Z,25.60
2022-08-20T10:29:47.721Z,24.86
2022-08-20T10:31:47.570Z,24.66
2022-08-20T10:33:47.641Z,24.48
2022-08-20T10:35:47.718Z,24.85
2022-08-20T10:37:47.825Z,24.54
2022-08-20T10:39:47.752Z,24.95
2022-08-20T10:41:47.690Z,24.95
2022-08-20T10:43:47.609Z,25.00
2022-08-20T10:45:47.696Z,24.76
2022-08-20T10:47:47.695Z,25.09
2022-08-20T10:49:47.690Z,24.86
2022-08-20T10:51:47.713Z,24.82
2022-08-20T10:53:47.726Z,24.71
2022-08-20T10:55:47.750Z,24.87
2022-08-20T10:57:47.691Z,24.85
2022-08-20T10:59:47.740Z,24.80
2022-08-20T11:01:47.754Z,24.74
2022-08-20T11:03:47.698Z,24.58
2022-08-20T11:05:47.733Z,24.62
2022-08-20T11:07:55.541Z,24.66
2022-08-20T11:09:47.727Z,24.63
2022-08-20T11:11:47.714Z,24.62
2022-08-20T11:13:47.697Z,24.66
2022-08-20T11:15:47.656Z,24.78
2022-08-20T11:17:47.761Z,24.54
2022-08-20T11:19:47.635Z,24.49
2022-08-20T11:21:47.651Z,24.62
2022-08-20T11:23:47.789Z,24.53
2022-08-20T11:25:47.631Z,24.16
2022-08-20T11:27:47.817Z,24.38
2022-08-20T11:29:47.703Z,24.15
2022-08-20T11:31:47.704Z,24.11
2022-08-20T11:33:47.685Z,24.10
2022-08-20T11:35:49.023Z,24.01
2022-08-20T11:37:47.719Z,23.94
2022-08-20T11:39:47.801Z,23.96
2022-08-20T11:41:47.756Z,24.20
2022-08-20T11:44:04.675Z,24.22
2022-08-20T11:45:47.762Z,24.40
2022-08-20T11:47:47.803Z,24.51
2022-08-20T11:49:47.668Z,24.53
2022-08-20T11:51:49.581Z,24.63
2022-08-20T11:53:47.681Z,24.54
2022-08-20T11:55:47.859Z,24.62
2022-08-20T11:57:47.737Z,24.53
2022-08-20T11:59:47.799Z,24.71
2022-08-20T12:02:01.939Z,24.77
2022-08-20T12:03:47.788Z,24.97
2022-08-20T12:05:47.785Z,25.04
2022-08-20T12:07:47.717Z,25.13
2022-08-20T12:09:50.727Z,24.96
2022-08-20T12:11:47.805Z,24.80
2022-08-20T12:13:49.227Z,24.78
2022-08-20T12:15:47.798Z,24.82
2022-08-20T12:17:47.724Z,24.90
2022-08-20T12:19:47.807Z,25.10
2022-08-20T12:21:47.789Z,25.13
2022-08-20T12:23:47.660Z,25.13
2022-08-20T12:25:47.812Z,25.05
2022-08-20T12:27:47.851Z,25.09
2022-08-20T12:29:47.839Z,25.07
2022-08-20T12:31:47.773Z,25.42
2022-08-20T12:33:47.855Z,25.47
2022-08-20T12:35:47.845Z,25.14
2022-08-20T12:37:47.838Z,25.07
2022-08-20T12:39:47.947Z,25.23
2022-08-20T12:41:47.793Z,25.45
2022-08-20T12:43:47.728Z,25.40
2022-08-20T12:45:47.818Z,25.38
2022-08-20T12:47:47.832Z,25.51
2022-08-20T12:49:47.784Z,25.60
2022-08-20T12:51:47.799Z,25.72
2022-08-20T12:53:47.894Z,26.00
2022-08-20T12:55:47.792Z,25.99
2022-08-20T12:57:47.891Z,26.34
2022-08-20T12:59:47.700Z,26.32
2022-08-20T13:01:47.953Z,26.30
2022-08-20T13:03:47.925Z,26.68
2022-08-20T13:05:47.929Z,26.93
2022-08-20T13:07:47.851Z,26.34
2022-08-20T13:09:47.841Z,26.25
2022-08-20T13:11:47.832Z,27.23
2022-08-20T13:13:47.798Z,26.38
2022-08-20T13:15:47.934Z,26.49
2022-08-20T13:17:47.869Z,26.67
2022-08-20T13:19:47.855Z,26.71
2022-08-20T13:21:50.351Z,26.92
2022-08-20T13:23:47.929Z,26.85
2022-08-20T13:25:47.774Z,27.84
2022-08-20T13:27:47.902Z,25.80
2022-08-20T13:29:47.862Z,27.22
2022-08-20T13:31:47.891Z,26.36
2022-08-20T13:33:47.915Z,27.96
2022-08-20T13:35:47.914Z,28.02
2022-08-20T13:37:47.798Z,27.70
2022-08-20T13:39:47.992Z,27.93
2022-08-20T13:41:47.914Z,27.91
2022-08-20T13:43:47.880Z,27.56
2022-08-20T13:45:47.904Z,27.93
2022-08-20T13:47:47.929Z,25.47
2022-08-20T13:49:47.953Z,25.37
2022-08-20T13:51:47.951Z,27.81
2022-08-20T13:53:47.843Z,27.67
2022-08-20T13:55:47.935Z,27.70
2022-08-20T13:57:47.799Z,27.53
2022-08-20T13:59:47.802Z,27.50
2022-08-20T14:01:48.041Z,27.66
2022-08-20T14:03:47.858Z,27.66
2022-08-20T14:05:47.938Z,25.60
2022-08-20T14:07:47.929Z,26.08
2022-08-20T14:09:47.965Z,26.46
2022-08-20T14:11:47.888Z,27.46
2022-08-20T14:13:47.803Z,27.77
2022-08-20T14:15:47.779Z,27.30
2022-08-20T14:17:47.839Z,26.85
2022-08-20T14:19:47.944Z,26.22
2022-08-20T14:21:47.850Z,27.38
2022-08-20T14:23:47.954Z,25.52
2022-08-20T14:25:47.972Z,25.65
2022-08-20T14:27:47.834Z,27.70
2022-08-20T14:29:47.862Z,25.57
2022-08-20T14:31:47.805Z,27.88
2022-08-20T14:33:47.971Z,25.65
2022-08-20T14:35:47.971Z,27.92
2022-08-20T14:37:47.983Z,25.60
2022-08-20T14:39:48.075Z,25.52
2022-08-20T14:41:47.970Z,25.57
2022-08-20T14:43:47.995Z,25.65
2022-08-20T14:45:48.045Z,25.63
2022-08-20T14:47:50.759Z,25.80
2022-08-20T14:49:48.017Z,25.80
2022-08-20T14:51:47.825Z,26.87
2022-08-20T14:53:48.042Z,26.93
2022-08-20T14:55:47.958Z,27.92
2022-08-20T14:57:47.916Z,25.95
2022-08-20T14:59:48.001Z,25.86
2022-08-20T15:01:48.026Z,26.02
2022-08-20T15:03:47.881Z,27.83
2022-08-20T15:05:48.015Z,27.69
2022-08-20T15:07:48.009Z,27.69
2022-08-20T15:09:47.910Z,27.67
2022-08-20T15:11:47.878Z,27.64
2022-08-20T15:13:48.011Z,25.74
2022-08-20T15:15:47.877Z,26.38
2022-08-20T15:17:48.045Z,27.50
2022-08-20T15:19:47.973Z,26.83
2022-08-20T15:21:47.932Z,26.07
2022-08-20T15:23:48.023Z,26.22
2022-08-20T15:25:47.987Z,26.08
2022-08-20T15:27:48.007Z,26.09
2022-08-20T15:29:47.916Z,25.88
2022-08-20T15:31:47.973Z,26.73
2022-08-20T15:33:48.002Z,26.08
2022-08-20T15:35:48.030Z,26.07
2022-08-20T15:37:48.055Z,26.04
2022-08-20T15:39:48.082Z,26.11
2022-08-20T15:41:47.889Z,26.07
2022-08-20T15:43:48.029Z,25.95
2022-08-20T15:45:48.108Z,25.29
2022-08-20T15:47:48.020Z,26.36
2022-08-20T15:49:48.058Z,26.98
2022-08-20T15:51:47.887Z,25.97
2022-08-20T15:53:48.072Z,25.91
2022-08-20T15:55:47.963Z,26.06
2022-08-20T15:57:47.975Z,26.17
2022-08-20T15:59:48.100Z,25.91
2022-08-20T16:01:48.030Z,25.10
2022-08-20T16:03:48.075Z,25.90
2022-08-20T16:05:47.966Z,27.81
2022-08-20T16:07:48.045Z,26.52
2022-08-20T16:09:47.977Z,27.92
2022-08-20T16:11:48.038Z,27.90
2022-08-20T16:13:47.966Z,27.78
2022-08-20T16:15:49.668Z,27.78
2022-08-20T16:17:48.067Z,27.78
2022-08-20T16:19:48.136Z,26.21
2022-08-20T16:21:48.070Z,26.08
2022-08-20T16:23:48.098Z,26.08
2022-08-20T16:25:48.090Z,26.08
2022-08-20T16:27:47.958Z,26.22
2022-08-20T16:29:48.129Z,26.05
2022-08-20T16:31:48.142Z,26.29
2022-08-20T16:33:48.072Z,27.42
2022-08-20T16:35:48.226Z,27.90
2022-08-20T16:37:48.157Z,25.92
2022-08-20T16:39:48.489Z,26.03
2022-08-20T16:41:48.124Z,26.07
2022-08-20T16:43:48.147Z,26.08
2022-08-20T16:45:51.099Z,26.08
2022-08-20T16:47:48.059Z,26.00
2022-08-20T16:49:47.993Z,25.99
2022-08-20T16:51:51.544Z,25.23
2022-08-20T16:53:48.141Z,24.75
2022-08-20T16:55:48.142Z,24.66
2022-08-20T16:57:48.179Z,24.69
2022-08-20T16:59:48.067Z,24.58
2022-08-20T17:01:48.076Z,24.64
2022-08-20T17:03:48.163Z,24.51
2022-08-20T17:05:48.075Z,24.52
2022-08-20T17:07:48.885Z,24.58
2022-08-20T17:09:48.732Z,24.55
2022-08-20T17:11:48.131Z,24.72
2022-08-20T17:13:48.126Z,24.84
2022-08-20T17:15:48.035Z,24.51
2022-08-20T17:17:48.100Z,24.52
2022-08-20T17:19:48.071Z,24.58
2022-08-20T17:21:50.585Z,24.72
2022-08-20T17:23:55.989Z,24.86
2022-08-20T17:25:48.202Z,24.72
2022-08-20T17:27:48.107Z,24.76
2022-08-20T17:29:48.248Z,24.69
2022-08-20T17:31:48.056Z,24.75
2022-08-20T17:33:48.175Z,24.69
2022-08-20T17:35:48.019Z,24.74
2022-08-20T17:37:48.066Z,24.71
2022-08-20T17:39:48.120Z,24.66
2022-08-20T17:41:48.133Z,24.68
2022-08-20T17:43:48.139Z,24.66
2022-08-20T17:45:48.127Z,24.76
2022-08-20T17:47:48.142Z,24.67
2022-08-20T17:50:00.488Z,24.66
2022-08-20T17:51:48.151Z,24.41
2022-08-20T17:53:48.060Z,24.38
2022-08-20T17:55:48.199Z,24.35
2022-08-20T17:57:48.179Z,24.32
2022-08-20T18:00:00.881Z,24.12
2022-08-20T18:01:48.241Z,24.06
2022-08-20T18:03:48.175Z,24.23
2022-08-20T18:05:48.205Z,24.14
2022-08-20T18:07:48.211Z,24.15
2022-08-20T18:09:48.237Z,24.18
2022-08-20T18:11:48.246Z,24.41
2022-08-20T18:13:48.497Z,24.36
2022-08-20T18:15:48.196Z,24.38
2022-08-20T18:17:48.208Z,24.39
2022-08-20T18:19:48.252Z,24.38
2022-08-20T18:21:48.273Z,24.37
2022-08-20T18:23:48.153Z,24.38
2022-08-20T18:25:48.306Z,24.50
2022-08-20T18:27:48.220Z,24.44
2022-08-20T18:29:48.258Z,24.47
2022-08-20T18:31:48.289Z,24.43
2022-08-20T18:33:48.279Z,24.38
2022-08-20T18:35:48.270Z,24.41
2022-08-20T18:37:48.212Z,24.39
2022-08-20T18:39:48.297Z,24.46
2022-08-20T18:41:48.088Z,24.27
2022-08-20T18:43:48.175Z,24.35
2022-08-20T18:45:48.145Z,24.14
2022-08-20T18:47:48.362Z,23.95
2022-08-20T18:49:48.244Z,24.10
2022-08-20T18:51:48.296Z,24.09
2022-08-20T18:53:48.277Z,24.00
2022-08-20T18:55:48.132Z,24.23
2022-08-20T18:57:48.267Z,24.07
2022-08-20T18:59:48.298Z,24.10
2022-08-20T19:01:48.361Z,24.08
2022-08-20T19:03:48.233Z,23.83
2022-08-20T19:05:48.287Z,24.38
2022-08-20T19:07:49.068Z,24.32
2022-08-20T19:09:48.297Z,24.28
2022-08-20T19:11:48.360Z,24.34
2022-08-20T19:13:48.236Z,24.26
2022-08-20T19:15:48.188Z,24.37
2022-08-20T19:17:48.314Z,24.22
2022-08-20T19:19:48.291Z,24.27
2022-08-20T19:21:48.326Z,24.30
2022-08-20T19:23:48.122Z,24.24
2022-08-20T19:25:48.347Z,24.15
2022-08-20T19:27:48.309Z,24.25
2022-08-20T19:29:48.212Z,24.26
2022-08-20T19:31:48.335Z,24.12
2022-08-20T19:33:48.191Z,24.22
2022-08-20T19:35:48.317Z,24.16
2022-08-20T19:37:51.183Z,24.25
2022-08-20T19:39:48.186Z,24.25
2022-08-20T19:41:48.322Z,24.19
2022-08-20T19:43:48.340Z,23.95
2022-08-20T19:45:48.315Z,23.92
2022-08-20T19:47:48.313Z,23.96
2022-08-20T19:49:48.330Z,24.04
2022-08-20T19:51:48.393Z,23.98
2022-08-20T19:53:48.307Z,23.93
2022-08-20T19:55:48.199Z,23.93
2022-08-20T19:57:48.325Z,23.81
2022-08-20T19:59:48.297Z,23.81
2022-08-20T20:01:48.405Z,23.96
2022-08-20T20:03:48.307Z,24.09
2022-08-20T20:05:48.406Z,24.01
2022-08-20T20:07:48.371Z,24.13
2022-08-20T20:09:48.585Z,24.12
2022-08-20T20:11:48.389Z,24.10
2022-08-20T20:13:48.365Z,24.21
2022-08-20T20:15:48.387Z,24.12
2022-08-20T20:17:48.383Z,24.23
2022-08-20T20:19:48.346Z,24.20
2022-08-20T20:21:48.388Z,24.11
2022-08-20T20:23:48.331Z,24.12
2022-08-20T20:25:48.421Z,24.15
2022-08-20T20:27:48.314Z,24.10
2022-08-20T20:29:48.322Z,24.16
2022-08-20T20:31:48.359Z,24.18
2022-08-20T20:33:48.263Z,24.04
2022-08-20T20:35:48.484Z,24.04
2022-08-20T20:37:50.145Z,24.15
2022-08-20T20:39:48.414Z,24.10
2022-08-20T20:41:48.334Z,24.02
2022-08-20T20:43:48.357Z,23.69
2022-08-20T20:45:48.295Z,23.70
2022-08-20T20:47:48.293Z,23.79
2022-08-20T20:49:48.326Z,23.66
2022-08-20T20:51:48.452Z,23.73
2022-08-20T20:53:54.316Z,23.81
2022-08-20T20:55:48.437Z,23.81
2022-08-20T20:57:48.383Z,23.80
2022-08-20T20:59:48.294Z,23.81
2022-08-20T21:01:50.392Z,23.95
2022-08-20T21:03:48.268Z,23.96
2022-08-20T21:05:48.415Z,23.96
2022-08-20T21:07:50.437Z,24.10
2022-08-20T21:09:48.366Z,23.86
2022-08-20T21:11:48.418Z,23.91
2022-08-20T21:13:49.023Z,23.91
2022-08-20T21:15:48.401Z,23.95
2022-08-20T21:17:48.409Z,23.96
2022-08-20T21:19:48.360Z,23.98
2022-08-20T21:21:48.316Z,23.99
2022-08-20T21:23:48.387Z,23.95
2022-08-20T21:25:48.441Z,23.87
2022-08-20T21:27:48.312Z,23.81
2022-08-20T21:29:48.436Z,23.88
2022-08-20T21:31:48.344Z,23.93
2022-08-20T21:33:48.461Z,23.88
2022-08-20T21:35:48.495Z,23.91
2022-08-20T21:37:48.372Z,23.96
2022-08-20T21:39:48.450Z,23.62
2022-08-20T21:41:48.409Z,23.53
2022-08-20T21:43:49.480Z,23.61
2022-08-20T21:45:49.696Z,23.65
2022-08-20T21:47:48.669Z,23.61
2022-08-20T21:49:48.382Z,23.56
2022-08-20T21:51:48.427Z,23.48
2022-08-20T21:53:48.371Z,23.55
2022-08-20T21:55:48.453Z,23.44
2022-08-20T21:57:48.483Z,23.81
2022-08-20T21:59:48.375Z,23.79
2022-08-20T22:01:48.458Z,23.83
2022-08-20T22:03:49.553Z,23.86
2022-08-20T22:05:48.473Z,23.65
2022-08-20T22:07:48.404Z,23.84
2022-08-20T22:09:48.491Z,23.79
2022-08-20T22:11:53.413Z,23.75
2022-08-20T22:13:48.360Z,23.56
2022-08-20T22:15:48.493Z,23.73
2022-08-20T22:17:48.389Z,23.73
2022-08-20T22:19:48.429Z,23.73
2022-08-20T22:21:48.375Z,23.69
2022-08-20T22:23:48.469Z,23.77
2022-08-20T22:25:48.552Z,23.67
2022-08-20T22:27:48.511Z,23.63
2022-08-20T22:29:48.523Z,23.78
2022-08-20T22:31:48.505Z,23.81
2022-08-20T22:33:48.353Z,23.72
2022-08-20T22:35:48.491Z,23.57
2022-08-20T22:37:48.522Z,23.48
2022-08-20T22:39:48.419Z,23.52
2022-08-20T22:41:48.404Z,23.38
2022-08-20T22:43:56.950Z,23.53
2022-08-20T22:45:48.481Z,23.42
2022-08-20T22:47:48.596Z,23.25
2022-08-20T22:49:48.462Z,23.30
2022-08-20T22:51:48.556Z,23.52
2022-08-20T22:53:48.496Z,23.53
2022-08-20T22:55:48.541Z,23.61
2022-08-20T22:57:48.578Z,23.66
2022-08-20T22:59:53.288Z,23.65
2022-08-20T23:01:48.536Z,23.60
2022-08-20T23:03:48.550Z,23.66
2022-08-20T23:05:48.588Z,23.70
2022-08-20T23:07:51.987Z,23.66
2022-08-20T23:09:48.504Z,23.73
2022-08-20T23:11:48.598Z,23.65
2022-08-20T23:13:48.540Z,23.65
2022-08-20T23:15:48.560Z,23.57
2022-08-20T23:17:48.513Z,23.68
2022-08-20T23:19:48.609Z,23.56
2022-08-20T23:21:48.499Z,23.55
2022-08-20T23:23:48.561Z,23.58
2022-08-20T23:25:48.620Z,23.66
2022-08-20T23:27:48.542Z,23.60
2022-08-20T23:29:48.517Z,23.52
2022-08-20T23:31:48.581Z,23.26
2022-08-20T23:33:48.603Z,23.25
2022-08-20T23:35:48.492Z,23.17
2022-08-20T23:37:48.622Z,23.13
2022-08-20T23:39:48.612Z,23.26
2022-08-20T23:41:48.632Z,23.25
2022-08-20T23:43:48.587Z,23.11
2022-08-20T23:45:48.486Z,23.24
2022-08-20T23:47:48.535Z,23.27
2022-08-20T23:49:48.577Z,23.43
2022-08-20T23:51:48.557Z,23.53
2022-08-20T23:53:48.591Z,23.53
2022-08-20T23:55:48.631Z,23.39
2022-08-20T23:57:48.657Z,23.45
2022-08-20T23:59:48.617Z,23.43
